sensor_id;sensor_type;location;lat;lon;timestamp;P1;durP1;ratioP1;P2;durP2;ratioP2
13493;SDS011;6819;50.886;4.332;2023-11-18T00:01:20;14.15;;;8.50;;
13493;SDS011;6819;50.886;4.332;2023-11-18T00:03:45;16.30;;;8.95;;
13493;SDS011;6819;50.886;4.332;2023-11-18T00:06:11;16.85;;;8.15;;
13493;SDS011;6819;50.886;4.332;2023-11-18T00:08:37;20.40;;;8.55;;
13493;SDS011;6819;50.886;4.332;2023-11-18T00:11:04;11.85;;;8.13;;
13493;SDS011;6819;50.886;4.332;2023-11-18T00:13:30;18.23;;;8.95;;
13493;SDS011;6819;50.886;4.332;2023-11-18T00:15:55;15.40;;;7.57;;
13493;SDS011;6819;50.886;4.332;2023-11-18T00:18:23;17.80;;;8.52;;
13493;SDS011;6819;50.886;4.332;2023-11-18T00:20:49;17.23;;;8.82;;
13493;SDS011;6819;50.886;4.332;2023-11-18T00:23:15;16.40;;;7.85;;
13493;SDS011;6819;50.886;4.332;2023-11-18T00:25:42;17.05;;;8.70;;
13493;SDS011;6819;50.886;4.332;2023-11-18T00:28:10;13.02;;;8.63;;
13493;SDS011;6819;50.886;4.332;2023-11-18T00:30:36;16.75;;;8.95;;
13493;SDS011;6819;50.886;4.332;2023-11-18T00:33:02;24.58;;;9.50;;
13493;SDS011;6819;50.886;4.332;2023-11-18T00:35:28;19.98;;;8.50;;
13493;SDS011;6819;50.886;4.332;2023-11-18T00:37:57;17.50;;;8.65;;
13493;SDS011;6819;50.886;4.332;2023-11-18T00:40:24;17.88;;;8.15;;
13493;SDS011;6819;50.886;4.332;2023-11-18T00:42:50;21.85;;;9.43;;
13493;SDS011;6819;50.886;4.332;2023-11-18T00:45:15;16.23;;;8.15;;
13493;SDS011;6819;50.886;4.332;2023-11-18T00:47:43;18.48;;;8.40;;
13493;SDS011;6819;50.886;4.332;2023-11-18T00:50:09;23.42;;;8.77;;
13493;SDS011;6819;50.886;4.332;2023-11-18T00:52:35;17.63;;;9.07;;
13493;SDS011;6819;50.886;4.332;2023-11-18T00:55:04;18.45;;;9.07;;
13493;SDS011;6819;50.886;4.332;2023-11-18T00:57:31;20.23;;;9.38;;
13493;SDS011;6819;50.886;4.332;2023-11-18T00:59:57;15.02;;;7.55;;
13493;SDS011;6819;50.886;4.332;2023-11-18T01:02:23;15.57;;;8.50;;
13493;SDS011;6819;50.886;4.332;2023-11-18T01:04:49;15.88;;;8.63;;
13493;SDS011;6819;50.886;4.332;2023-11-18T01:07:15;21.77;;;8.90;;
13493;SDS011;6819;50.886;4.332;2023-11-18T01:09:41;23.30;;;9.43;;
13493;SDS011;6819;50.886;4.332;2023-11-18T01:12:08;16.67;;;8.05;;
13493;SDS011;6819;50.886;4.332;2023-11-18T01:14:38;15.40;;;8.52;;
13493;SDS011;6819;50.886;4.332;2023-11-18T01:17:07;19.48;;;8.45;;
13493;SDS011;6819;50.886;4.332;2023-11-18T01:19:38;23.23;;;8.43;;
13493;SDS011;6819;50.886;4.332;2023-11-18T01:22:04;16.90;;;8.13;;
13493;SDS011;6819;50.886;4.332;2023-11-18T01:24:31;14.95;;;7.80;;
13493;SDS011;6819;50.886;4.332;2023-11-18T01:26:57;20.60;;;7.57;;
13493;SDS011;6819;50.886;4.332;2023-11-18T01:29:27;20.30;;;7.78;;
13493;SDS011;6819;50.886;4.332;2023-11-18T01:31:53;13.68;;;7.65;;
13493;SDS011;6819;50.886;4.332;2023-11-18T01:34:21;14.55;;;7.53;;
13493;SDS011;6819;50.886;4.332;2023-11-18T01:36:47;17.15;;;7.68;;
13493;SDS011;6819;50.886;4.332;2023-11-18T01:39:14;16.80;;;7.45;;
13493;SDS011;6819;50.886;4.332;2023-11-18T01:41:40;19.85;;;7.40;;
13493;SDS011;6819;50.886;4.332;2023-11-18T01:44:06;14.93;;;6.85;;
13493;SDS011;6819;50.886;4.332;2023-11-18T01:46:33;23.08;;;7.18;;
13493;SDS011;6819;50.886;4.332;2023-11-18T01:49:01;16.35;;;6.78;;
13493;SDS011;6819;50.886;4.332;2023-11-18T01:51:29;13.73;;;6.97;;
13493;SDS011;6819;50.886;4.332;2023-11-18T01:53:55;17.08;;;6.45;;
13493;SDS011;6819;50.886;4.332;2023-11-18T01:56:22;13.45;;;6.88;;
13493;SDS011;6819;50.886;4.332;2023-11-18T01:58:50;14.52;;;7.07;;
13493;SDS011;6819;50.886;4.332;2023-11-18T02:01:16;13.43;;;7.30;;
13493;SDS011;6819;50.886;4.332;2023-11-18T02:03:43;12.05;;;6.18;;
13493;SDS011;6819;50.886;4.332;2023-11-18T02:06:09;19.10;;;7.35;;
13493;SDS011;6819;50.886;4.332;2023-11-18T02:08:38;15.35;;;6.82;;
13493;SDS011;6819;50.886;4.332;2023-11-18T02:11:05;16.70;;;7.15;;
13493;SDS011;6819;50.886;4.332;2023-11-18T02:13:37;14.18;;;6.53;;
13493;SDS011;6819;50.886;4.332;2023-11-18T02:16:04;14.68;;;6.35;;
13493;SDS011;6819;50.886;4.332;2023-11-18T02:18:33;11.20;;;5.13;;
13493;SDS011;6819;50.886;4.332;2023-11-18T02:20:59;16.73;;;5.43;;
13493;SDS011;6819;50.886;4.332;2023-11-18T02:23:26;13.27;;;5.50;;
13493;SDS011;6819;50.886;4.332;2023-11-18T02:25:53;9.75;;;5.50;;
13493;SDS011;6819;50.886;4.332;2023-11-18T02:28:20;13.48;;;5.82;;
13493;SDS011;6819;50.886;4.332;2023-11-18T02:30:46;10.68;;;5.18;;
13493;SDS011;6819;50.886;4.332;2023-11-18T02:35:49;9.50;;;4.78;;
13493;SDS011;6819;50.886;4.332;2023-11-18T02:38:18;8.95;;;5.10;;
13493;SDS011;6819;50.886;4.332;2023-11-18T02:40:45;14.95;;;5.63;;
13493;SDS011;6819;50.886;4.332;2023-11-18T02:43:13;11.38;;;4.22;;
13493;SDS011;6819;50.886;4.332;2023-11-18T02:45:40;14.05;;;4.50;;
13493;SDS011;6819;50.886;4.332;2023-11-18T02:48:07;11.43;;;4.50;;
13493;SDS011;6819;50.886;4.332;2023-11-18T02:50:33;8.00;;;4.55;;
13493;SDS011;6819;50.886;4.332;2023-11-18T02:53:01;15.93;;;4.22;;
13493;SDS011;6819;50.886;4.332;2023-11-18T02:55:27;12.50;;;5.00;;
13493;SDS011;6819;50.886;4.332;2023-11-18T02:57:53;10.60;;;3.53;;
13493;SDS011;6819;50.886;4.332;2023-11-18T03:00:19;10.27;;;4.13;;
13493;SDS011;6819;50.886;4.332;2023-11-18T03:02:51;16.67;;;3.80;;
13493;SDS011;6819;50.886;4.332;2023-11-18T03:05:18;10.32;;;4.10;;
13493;SDS011;6819;50.886;4.332;2023-11-18T03:07:44;17.60;;;4.00;;
13493;SDS011;6819;50.886;4.332;2023-11-18T03:10:21;11.27;;;4.22;;
13493;SDS011;6819;50.886;4.332;2023-11-18T03:12:48;14.60;;;3.83;;
13493;SDS011;6819;50.886;4.332;2023-11-18T03:15:14;9.43;;;3.65;;
13493;SDS011;6819;50.886;4.332;2023-11-18T03:17:43;9.20;;;3.28;;
13493;SDS011;6819;50.886;4.332;2023-11-18T03:20:10;8.90;;;3.08;;
13493;SDS011;6819;50.886;4.332;2023-11-18T03:22:39;12.68;;;3.60;;
13493;SDS011;6819;50.886;4.332;2023-11-18T03:25:05;17.10;;;3.40;;
13493;SDS011;6819;50.886;4.332;2023-11-18T03:27:33;10.63;;;3.17;;
13493;SDS011;6819;50.886;4.332;2023-11-18T03:29:59;6.57;;;2.90;;
13493;SDS011;6819;50.886;4.332;2023-11-18T03:32:25;9.05;;;2.83;;
13493;SDS011;6819;50.886;4.332;2023-11-18T03:34:51;9.90;;;2.72;;
13493;SDS011;6819;50.886;4.332;2023-11-18T03:37:18;11.85;;;3.50;;
13493;SDS011;6819;50.886;4.332;2023-11-18T03:39:45;12.57;;;3.67;;
13493;SDS011;6819;50.886;4.332;2023-11-18T03:42:11;7.95;;;2.78;;
13493;SDS011;6819;50.886;4.332;2023-11-18T03:44:37;12.57;;;3.03;;
13493;SDS011;6819;50.886;4.332;2023-11-18T03:47:03;11.40;;;3.38;;
13493;SDS011;6819;50.886;4.332;2023-11-18T03:49:29;5.20;;;2.63;;
13493;SDS011;6819;50.886;4.332;2023-11-18T03:51:56;14.27;;;3.22;;
13493;SDS011;6819;50.886;4.332;2023-11-18T03:54:22;12.30;;;3.20;;
13493;SDS011;6819;50.886;4.332;2023-11-18T03:56:48;6.85;;;3.05;;
13493;SDS011;6819;50.886;4.332;2023-11-18T03:59:14;9.57;;;2.72;;
13493;SDS011;6819;50.886;4.332;2023-11-18T04:01:40;15.82;;;3.05;;
13493;SDS011;6819;50.886;4.332;2023-11-18T04:04:06;14.57;;;3.13;;
13493;SDS011;6819;50.886;4.332;2023-11-18T04:06:32;11.13;;;2.92;;
13493;SDS011;6819;50.886;4.332;2023-11-18T04:08:58;14.52;;;2.60;;
13493;SDS011;6819;50.886;4.332;2023-11-18T04:11:24;11.65;;;3.28;;
13493;SDS011;6819;50.886;4.332;2023-11-18T04:13:51;7.60;;;2.80;;
13493;SDS011;6819;50.886;4.332;2023-11-18T04:16:17;10.63;;;2.33;;
13493;SDS011;6819;50.886;4.332;2023-11-18T04:18:44;8.57;;;2.38;;
13493;SDS011;6819;50.886;4.332;2023-11-18T04:21:11;7.82;;;2.22;;
13493;SDS011;6819;50.886;4.332;2023-11-18T04:23:38;9.00;;;3.20;;
13493;SDS011;6819;50.886;4.332;2023-11-18T04:26:05;14.80;;;3.30;;
13493;SDS011;6819;50.886;4.332;2023-11-18T04:28:32;7.20;;;3.17;;
13493;SDS011;6819;50.886;4.332;2023-11-18T04:30:58;11.68;;;2.63;;
13493;SDS011;6819;50.886;4.332;2023-11-18T04:33:24;7.40;;;2.47;;
13493;SDS011;6819;50.886;4.332;2023-11-18T04:35:51;6.95;;;2.13;;
13493;SDS011;6819;50.886;4.332;2023-11-18T04:38:20;9.32;;;2.63;;
13493;SDS011;6819;50.886;4.332;2023-11-18T04:40:46;8.88;;;2.15;;
13493;SDS011;6819;50.886;4.332;2023-11-18T04:43:12;8.05;;;2.40;;
13493;SDS011;6819;50.886;4.332;2023-11-18T04:45:38;9.57;;;1.98;;
13493;SDS011;6819;50.886;4.332;2023-11-18T04:48:04;10.00;;;2.35;;
13493;SDS011;6819;50.886;4.332;2023-11-18T04:50:31;11.68;;;2.10;;
13493;SDS011;6819;50.886;4.332;2023-11-18T04:52:58;6.82;;;2.15;;
13493;SDS011;6819;50.886;4.332;2023-11-18T04:55:24;8.10;;;2.20;;
13493;SDS011;6819;50.886;4.332;2023-11-18T04:57:51;5.70;;;1.60;;
13493;SDS011;6819;50.886;4.332;2023-11-18T05:00:17;8.88;;;2.13;;
13493;SDS011;6819;50.886;4.332;2023-11-18T05:02:44;10.52;;;1.88;;
13493;SDS011;6819;50.886;4.332;2023-11-18T05:05:14;10.05;;;1.77;;
13493;SDS011;6819;50.886;4.332;2023-11-18T05:07:41;5.80;;;1.70;;
13493;SDS011;6819;50.886;4.332;2023-11-18T05:10:07;10.80;;;2.03;;
13493;SDS011;6819;50.886;4.332;2023-11-18T05:12:34;9.35;;;2.00;;
13493;SDS011;6819;50.886;4.332;2023-11-18T05:15:00;8.15;;;1.70;;
13493;SDS011;6819;50.886;4.332;2023-11-18T05:17:27;3.95;;;1.65;;
13493;SDS011;6819;50.886;4.332;2023-11-18T05:19:55;6.28;;;1.90;;
13493;SDS011;6819;50.886;4.332;2023-11-18T05:22:21;9.88;;;2.00;;
13493;SDS011;6819;50.886;4.332;2023-11-18T05:24:47;7.32;;;1.90;;
13493;SDS011;6819;50.886;4.332;2023-11-18T05:27:14;9.70;;;2.28;;
13493;SDS011;6819;50.886;4.332;2023-11-18T05:29:40;10.20;;;1.52;;
13493;SDS011;6819;50.886;4.332;2023-11-18T05:32:19;5.85;;;1.75;;
13493;SDS011;6819;50.886;4.332;2023-11-18T05:34:45;5.97;;;1.63;;
13493;SDS011;6819;50.886;4.332;2023-11-18T05:37:12;7.63;;;2.58;;
13493;SDS011;6819;50.886;4.332;2023-11-18T05:39:39;5.70;;;2.08;;
13493;SDS011;6819;50.886;4.332;2023-11-18T05:42:09;13.18;;;1.77;;
13493;SDS011;6819;50.886;4.332;2023-11-18T05:44:38;4.90;;;1.63;;
13493;SDS011;6819;50.886;4.332;2023-11-18T05:47:07;11.73;;;2.15;;
13493;SDS011;6819;50.886;4.332;2023-11-18T05:49:36;8.77;;;2.25;;
13493;SDS011;6819;50.886;4.332;2023-11-18T05:52:03;9.48;;;2.03;;
13493;SDS011;6819;50.886;4.332;2023-11-18T05:54:29;10.18;;;2.05;;
13493;SDS011;6819;50.886;4.332;2023-11-18T05:56:55;15.80;;;2.20;;
13493;SDS011;6819;50.886;4.332;2023-11-18T05:59:24;8.10;;;1.90;;
13493;SDS011;6819;50.886;4.332;2023-11-18T06:01:50;5.90;;;1.73;;
13493;SDS011;6819;50.886;4.332;2023-11-18T06:04:16;14.38;;;2.40;;
13493;SDS011;6819;50.886;4.332;2023-11-18T06:06:42;4.63;;;1.67;;
13493;SDS011;6819;50.886;4.332;2023-11-18T06:09:08;10.57;;;2.38;;
13493;SDS011;6819;50.886;4.332;2023-11-18T06:11:42;9.25;;;2.00;;
13493;SDS011;6819;50.886;4.332;2023-11-18T06:14:10;6.15;;;2.10;;
13493;SDS011;6819;50.886;4.332;2023-11-18T06:16:37;10.00;;;2.08;;
13493;SDS011;6819;50.886;4.332;2023-11-18T06:19:04;3.45;;;1.63;;
13493;SDS011;6819;50.886;4.332;2023-11-18T06:21:31;5.57;;;2.25;;
13493;SDS011;6819;50.886;4.332;2023-11-18T06:23:58;5.03;;;1.73;;
13493;SDS011;6819;50.886;4.332;2023-11-18T06:26:25;6.72;;;2.20;;
13493;SDS011;6819;50.886;4.332;2023-11-18T06:28:52;8.45;;;1.80;;
13493;SDS011;6819;50.886;4.332;2023-11-18T06:31:18;8.13;;;1.85;;
13493;SDS011;6819;50.886;4.332;2023-11-18T06:33:45;7.32;;;2.03;;
13493;SDS011;6819;50.886;4.332;2023-11-18T06:38:45;7.28;;;1.73;;
13493;SDS011;6819;50.886;4.332;2023-11-18T06:41:12;7.30;;;2.10;;
13493;SDS011;6819;50.886;4.332;2023-11-18T06:43:40;10.38;;;1.95;;
13493;SDS011;6819;50.886;4.332;2023-11-18T06:46:19;6.20;;;2.00;;
13493;SDS011;6819;50.886;4.332;2023-11-18T06:48:51;5.18;;;1.92;;
13493;SDS011;6819;50.886;4.332;2023-11-18T06:51:19;6.57;;;1.63;;
13493;SDS011;6819;50.886;4.332;2023-11-18T06:53:49;6.78;;;1.90;;
13493;SDS011;6819;50.886;4.332;2023-11-18T06:56:15;8.68;;;1.92;;
13493;SDS011;6819;50.886;4.332;2023-11-18T06:58:41;5.65;;;1.60;;
13493;SDS011;6819;50.886;4.332;2023-11-18T07:01:08;4.38;;;1.75;;
13493;SDS011;6819;50.886;4.332;2023-11-18T07:03:35;10.43;;;1.92;;
13493;SDS011;6819;50.886;4.332;2023-11-18T07:06:04;5.07;;;1.77;;
13493;SDS011;6819;50.886;4.332;2023-11-18T07:08:31;5.05;;;1.58;;
13493;SDS011;6819;50.886;4.332;2023-11-18T07:10:58;7.15;;;2.00;;
13493;SDS011;6819;50.886;4.332;2023-11-18T07:13:26;5.45;;;2.05;;
13493;SDS011;6819;50.886;4.332;2023-11-18T07:15:52;6.28;;;2.03;;
13493;SDS011;6819;50.886;4.332;2023-11-18T07:18:25;14.07;;;2.42;;
13493;SDS011;6819;50.886;4.332;2023-11-18T07:20:51;5.97;;;1.92;;
13493;SDS011;6819;50.886;4.332;2023-11-18T07:23:18;6.15;;;1.70;;
13493;SDS011;6819;50.886;4.332;2023-11-18T07:25:44;10.25;;;2.40;;
13493;SDS011;6819;50.886;4.332;2023-11-18T07:28:13;6.18;;;2.05;;
13493;SDS011;6819;50.886;4.332;2023-11-18T07:30:41;7.00;;;2.22;;
13493;SDS011;6819;50.886;4.332;2023-11-18T07:33:08;11.23;;;2.20;;
13493;SDS011;6819;50.886;4.332;2023-11-18T07:35:34;10.45;;;2.10;;
13493;SDS011;6819;50.886;4.332;2023-11-18T07:38:02;5.38;;;2.13;;
13493;SDS011;6819;50.886;4.332;2023-11-18T07:40:28;11.27;;;2.30;;
13493;SDS011;6819;50.886;4.332;2023-11-18T07:42:55;11.88;;;2.78;;
13493;SDS011;6819;50.886;4.332;2023-11-18T07:45:21;8.32;;;2.80;;
13493;SDS011;6819;50.886;4.332;2023-11-18T07:47:49;13.32;;;3.42;;
13493;SDS011;6819;50.886;4.332;2023-11-18T07:50:16;11.70;;;3.15;;
13493;SDS011;6819;50.886;4.332;2023-11-18T07:52:42;9.70;;;2.33;;
13493;SDS011;6819;50.886;4.332;2023-11-18T07:55:08;6.65;;;2.50;;
13493;SDS011;6819;50.886;4.332;2023-11-18T07:57:36;13.35;;;2.85;;
13493;SDS011;6819;50.886;4.332;2023-11-18T08:00:02;11.85;;;2.55;;
13493;SDS011;6819;50.886;4.332;2023-11-18T08:02:34;14.52;;;3.65;;
13493;SDS011;6819;50.886;4.332;2023-11-18T08:05:01;8.32;;;3.13;;
13493;SDS011;6819;50.886;4.332;2023-11-18T08:07:28;12.60;;;3.20;;
13493;SDS011;6819;50.886;4.332;2023-11-18T08:09:54;6.53;;;2.80;;
13493;SDS011;6819;50.886;4.332;2023-11-18T08:12:20;16.90;;;3.45;;
13493;SDS011;6819;50.886;4.332;2023-11-18T08:14:46;14.63;;;3.67;;
13493;SDS011;6819;50.886;4.332;2023-11-18T08:17:12;10.35;;;2.88;;
13493;SDS011;6819;50.886;4.332;2023-11-18T08:19:38;12.65;;;3.83;;
13493;SDS011;6819;50.886;4.332;2023-11-18T08:22:04;12.70;;;3.72;;
13493;SDS011;6819;50.886;4.332;2023-11-18T08:24:31;9.32;;;3.38;;
13493;SDS011;6819;50.886;4.332;2023-11-18T08:26:58;11.48;;;3.75;;
13493;SDS011;6819;50.886;4.332;2023-11-18T08:29:25;11.07;;;4.07;;
13493;SDS011;6819;50.886;4.332;2023-11-18T08:31:56;12.68;;;4.10;;
13493;SDS011;6819;50.886;4.332;2023-11-18T08:34:22;12.65;;;4.85;;
13493;SDS011;6819;50.886;4.332;2023-11-18T08:36:51;12.02;;;5.15;;
13493;SDS011;6819;50.886;4.332;2023-11-18T08:39:17;9.68;;;4.38;;
13493;SDS011;6819;50.886;4.332;2023-11-18T08:41:45;7.65;;;4.22;;
13493;SDS011;6819;50.886;4.332;2023-11-18T08:44:11;11.07;;;4.72;;
13493;SDS011;6819;50.886;4.332;2023-11-18T08:46:38;9.18;;;4.28;;
13493;SDS011;6819;50.886;4.332;2023-11-18T08:49:04;12.95;;;4.53;;
13493;SDS011;6819;50.886;4.332;2023-11-18T08:51:36;11.52;;;5.15;;
13493;SDS011;6819;50.886;4.332;2023-11-18T08:54:03;11.00;;;4.65;;
13493;SDS011;6819;50.886;4.332;2023-11-18T08:56:47;7.60;;;4.20;;
13493;SDS011;6819;50.886;4.332;2023-11-18T08:59:15;13.43;;;4.50;;
13493;SDS011;6819;50.886;4.332;2023-11-18T09:01:41;9.27;;;4.72;;
13493;SDS011;6819;50.886;4.332;2023-11-18T09:04:08;18.00;;;5.20;;
13493;SDS011;6819;50.886;4.332;2023-11-18T09:06:35;10.77;;;4.30;;
13493;SDS011;6819;50.886;4.332;2023-11-18T09:09:01;12.85;;;5.13;;
13493;SDS011;6819;50.886;4.332;2023-11-18T09:11:31;8.73;;;4.60;;
13493;SDS011;6819;50.886;4.332;2023-11-18T09:13:58;7.45;;;4.38;;
13493;SDS011;6819;50.886;4.332;2023-11-18T09:16:25;10.02;;;4.30;;
13493;SDS011;6819;50.886;4.332;2023-11-18T09:18:54;11.73;;;4.82;;
13493;SDS011;6819;50.886;4.332;2023-11-18T09:21:23;11.50;;;4.60;;
13493;SDS011;6819;50.886;4.332;2023-11-18T09:23:54;11.63;;;4.60;;
13493;SDS011;6819;50.886;4.332;2023-11-18T09:26:21;13.40;;;5.35;;
13493;SDS011;6819;50.886;4.332;2023-11-18T09:28:47;11.77;;;4.72;;
13493;SDS011;6819;50.886;4.332;2023-11-18T09:31:15;13.18;;;6.50;;
13493;SDS011;6819;50.886;4.332;2023-11-18T09:33:42;13.65;;;5.05;;
13493;SDS011;6819;50.886;4.332;2023-11-18T09:36:17;9.07;;;4.75;;
13493;SDS011;6819;50.886;4.332;2023-11-18T09:38:44;18.73;;;5.50;;
13493;SDS011;6819;50.886;4.332;2023-11-18T09:41:14;11.52;;;4.55;;
13493;SDS011;6819;50.886;4.332;2023-11-18T09:43:44;11.25;;;4.78;;
13493;SDS011;6819;50.886;4.332;2023-11-18T09:46:11;9.93;;;4.57;;
13493;SDS011;6819;50.886;4.332;2023-11-18T09:48:44;12.10;;;4.75;;
13493;SDS011;6819;50.886;4.332;2023-11-18T09:51:21;9.32;;;4.90;;
13493;SDS011;6819;50.886;4.332;2023-11-18T09:53:52;13.52;;;4.97;;
13493;SDS011;6819;50.886;4.332;2023-11-18T09:56:33;8.90;;;4.57;;
13493;SDS011;6819;50.886;4.332;2023-11-18T09:59:23;8.05;;;4.78;;
13493;SDS011;6819;50.886;4.332;2023-11-18T10:01:56;8.65;;;4.18;;
13493;SDS011;6819;50.886;4.332;2023-11-18T10:04:26;7.68;;;4.13;;
13493;SDS011;6819;50.886;4.332;2023-11-18T10:06:53;12.02;;;4.63;;
13493;SDS011;6819;50.886;4.332;2023-11-18T10:09:19;10.07;;;4.43;;
13493;SDS011;6819;50.886;4.332;2023-11-18T10:11:53;13.70;;;5.28;;
13493;SDS011;6819;50.886;4.332;2023-11-18T10:14:25;9.38;;;4.70;;
13493;SDS011;6819;50.886;4.332;2023-11-18T10:16:52;10.25;;;4.97;;
13493;SDS011;6819;50.886;4.332;2023-11-18T10:19:19;7.78;;;4.45;;
13493;SDS011;6819;50.886;4.332;2023-11-18T10:21:45;10.20;;;4.70;;
13493;SDS011;6819;50.886;4.332;2023-11-18T10:24:14;9.80;;;4.55;;
13493;SDS011;6819;50.886;4.332;2023-11-18T10:26:44;8.43;;;4.40;;
13493;SDS011;6819;50.886;4.332;2023-11-18T10:29:11;9.70;;;4.65;;
13493;SDS011;6819;50.886;4.332;2023-11-18T10:31:41;10.75;;;4.38;;
13493;SDS011;6819;50.886;4.332;2023-11-18T10:34:13;5.22;;;4.22;;
13493;SDS011;6819;50.886;4.332;2023-11-18T10:36:58;8.18;;;4.30;;
13493;SDS011;6819;50.886;4.332;2023-11-18T10:39:28;9.00;;;4.83;;
13493;SDS011;6819;50.886;4.332;2023-11-18T10:41:58;8.00;;;3.92;;
13493;SDS011;6819;50.886;4.332;2023-11-18T10:44:25;7.93;;;4.20;;
13493;SDS011;6819;50.886;4.332;2023-11-18T10:46:52;6.93;;;3.83;;
13493;SDS011;6819;50.886;4.332;2023-11-18T10:49:18;13.32;;;4.45;;
13493;SDS011;6819;50.886;4.332;2023-11-18T10:51:44;11.32;;;4.32;;
13493;SDS011;6819;50.886;4.332;2023-11-18T10:54:12;14.02;;;4.15;;
13493;SDS011;6819;50.886;4.332;2023-11-18T10:56:50;8.38;;;4.20;;
13493;SDS011;6819;50.886;4.332;2023-11-18T10:59:21;6.65;;;3.33;;
13493;SDS011;6819;50.886;4.332;2023-11-18T11:01:48;9.20;;;3.75;;
13493;SDS011;6819;50.886;4.332;2023-11-18T11:04:14;10.50;;;3.70;;
13493;SDS011;6819;50.886;4.332;2023-11-18T11:06:45;5.90;;;3.33;;
13493;SDS011;6819;50.886;4.332;2023-11-18T11:11:50;4.82;;;2.42;;
13493;SDS011;6819;50.886;4.332;2023-11-18T11:14:20;5.50;;;2.97;;
13493;SDS011;6819;50.886;4.332;2023-11-18T11:16:53;6.40;;;2.90;;
13493;SDS011;6819;50.886;4.332;2023-11-18T11:19:24;9.73;;;2.95;;
13493;SDS011;6819;50.886;4.332;2023-11-18T11:22:07;6.57;;;2.85;;
13493;SDS011;6819;50.886;4.332;2023-11-18T11:29:59;4.13;;;2.40;;
13493;SDS011;6819;50.886;4.332;2023-11-18T11:32:35;6.03;;;2.28;;
13493;SDS011;6819;50.886;4.332;2023-11-18T11:35:06;4.93;;;2.50;;
13493;SDS011;6819;50.886;4.332;2023-11-18T11:37:33;5.18;;;1.73;;
13493;SDS011;6819;50.886;4.332;2023-11-18T11:40:02;4.72;;;1.73;;
13493;SDS011;6819;50.886;4.332;2023-11-18T11:42:36;3.45;;;1.80;;
13493;SDS011;6819;50.886;4.332;2023-11-18T11:45:02;4.75;;;1.70;;
13493;SDS011;6819;50.886;4.332;2023-11-18T11:47:29;5.63;;;1.73;;
13493;SDS011;6819;50.886;4.332;2023-11-18T11:50:06;2.00;;;1.52;;
13493;SDS011;6819;50.886;4.332;2023-11-18T11:52:39;3.20;;;1.60;;
13493;SDS011;6819;50.886;4.332;2023-11-18T11:55:12;3.28;;;1.80;;
13493;SDS011;6819;50.886;4.332;2023-11-18T11:57:49;5.65;;;1.85;;
13493;SDS011;6819;50.886;4.332;2023-11-18T12:00:18;5.15;;;1.70;;
13493;SDS011;6819;50.886;4.332;2023-11-18T12:02:48;5.65;;;1.60;;
13493;SDS011;6819;50.886;4.332;2023-11-18T12:05:17;3.50;;;1.73;;
13493;SDS011;6819;50.886;4.332;2023-11-18T12:07:52;4.60;;;1.85;;
13493;SDS011;6819;50.886;4.332;2023-11-18T12:10:30;3.70;;;1.70;;
13493;SDS011;6819;50.886;4.332;2023-11-18T12:13:06;4.13;;;1.48;;
13493;SDS011;6819;50.886;4.332;2023-11-18T12:15:52;2.33;;;1.45;;
13493;SDS011;6819;50.886;4.332;2023-11-18T12:18:19;2.45;;;1.38;;
13493;SDS011;6819;50.886;4.332;2023-11-18T12:20:47;1.98;;;1.67;;
13493;SDS011;6819;50.886;4.332;2023-11-18T12:23:16;2.33;;;1.50;;
13493;SDS011;6819;50.886;4.332;2023-11-18T12:25:48;2.95;;;1.52;;
13493;SDS011;6819;50.886;4.332;2023-11-18T12:28:19;4.07;;;1.70;;
13493;SDS011;6819;50.886;4.332;2023-11-18T12:30:46;3.38;;;1.38;;
13493;SDS011;6819;50.886;4.332;2023-11-18T12:33:26;7.25;;;1.50;;
13493;SDS011;6819;50.886;4.332;2023-11-18T12:41:38;3.30;;;1.15;;
13493;SDS011;6819;50.886;4.332;2023-11-18T12:49:20;2.63;;;1.25;;
13493;SDS011;6819;50.886;4.332;2023-11-18T12:51:49;3.47;;;1.30;;
13493;SDS011;6819;50.886;4.332;2023-11-18T12:54:16;4.22;;;1.10;;
13493;SDS011;6819;50.886;4.332;2023-11-18T12:56:43;3.53;;;1.30;;
13493;SDS011;6819;50.886;4.332;2023-11-18T12:59:13;3.03;;;1.17;;
13493;SDS011;6819;50.886;4.332;2023-11-18T13:01:42;3.58;;;1.23;;
13493;SDS011;6819;50.886;4.332;2023-11-18T13:04:15;2.38;;;1.38;;
13493;SDS011;6819;50.886;4.332;2023-11-18T13:06:41;2.80;;;1.33;;
13493;SDS011;6819;50.886;4.332;2023-11-18T13:09:08;3.28;;;1.02;;
13493;SDS011;6819;50.886;4.332;2023-11-18T13:11:35;2.10;;;1.17;;
13493;SDS011;6819;50.886;4.332;2023-11-18T13:14:03;5.20;;;1.20;;
13493;SDS011;6819;50.886;4.332;2023-11-18T13:16:29;1.42;;;0.98;;
13493;SDS011;6819;50.886;4.332;2023-11-18T13:18:55;1.75;;;1.00;;
13493;SDS011;6819;50.886;4.332;2023-11-18T13:21:21;2.25;;;1.15;;
13493;SDS011;6819;50.886;4.332;2023-11-18T13:23:51;1.75;;;1.20;;
13493;SDS011;6819;50.886;4.332;2023-11-18T13:26:18;1.42;;;0.98;;
13493;SDS011;6819;50.886;4.332;2023-11-18T13:28:45;2.63;;;1.13;;
13493;SDS011;6819;50.886;4.332;2023-11-18T13:31:12;1.33;;;0.82;;
13493;SDS011;6819;50.886;4.332;2023-11-18T13:33:46;1.30;;;0.95;;
13493;SDS011;6819;50.886;4.332;2023-11-18T13:36:13;2.05;;;1.10;;
13493;SDS011;6819;50.886;4.332;2023-11-18T13:38:40;2.03;;;1.08;;
13493;SDS011;6819;50.886;4.332;2023-11-18T13:41:06;1.48;;;1.10;;
13493;SDS011;6819;50.886;4.332;2023-11-18T13:43:43;1.95;;;0.93;;
13493;SDS011;6819;50.886;4.332;2023-11-18T13:46:13;2.00;;;1.10;;
13493;SDS011;6819;50.886;4.332;2023-11-18T13:48:40;2.72;;;1.33;;
13493;SDS011;6819;50.886;4.332;2023-11-18T13:51:07;1.48;;;1.00;;
13493;SDS011;6819;50.886;4.332;2023-11-18T13:53:34;1.77;;;1.00;;
13493;SDS011;6819;50.886;4.332;2023-11-18T13:56:01;3.17;;;1.30;;
13493;SDS011;6819;50.886;4.332;2023-11-18T13:58:29;2.38;;;1.23;;
13493;SDS011;6819;50.886;4.332;2023-11-18T14:00:55;1.90;;;1.10;;
13493;SDS011;6819;50.886;4.332;2023-11-18T14:03:21;1.80;;;1.10;;
13493;SDS011;6819;50.886;4.332;2023-11-18T14:05:50;3.03;;;1.48;;
13493;SDS011;6819;50.886;4.332;2023-11-18T14:08:17;2.10;;;1.30;;
13493;SDS011;6819;50.886;4.332;2023-11-18T14:10:44;3.60;;;1.70;;
13493;SDS011;6819;50.886;4.332;2023-11-18T14:13:13;2.97;;;1.45;;
13493;SDS011;6819;50.886;4.332;2023-11-18T14:15:42;1.55;;;1.13;;
13493;SDS011;6819;50.886;4.332;2023-11-18T14:18:10;3.95;;;1.35;;
13493;SDS011;6819;50.886;4.332;2023-11-18T14:20:38;2.00;;;1.30;;
13493;SDS011;6819;50.886;4.332;2023-11-18T14:23:04;1.63;;;1.30;;
13493;SDS011;6819;50.886;4.332;2023-11-18T14:25:30;1.92;;;1.40;;
13493;SDS011;6819;50.886;4.332;2023-11-18T14:27:57;1.70;;;1.38;;
13493;SDS011;6819;50.886;4.332;2023-11-18T14:30:23;2.35;;;1.30;;
13493;SDS011;6819;50.886;4.332;2023-11-18T14:32:52;2.53;;;1.40;;
13493;SDS011;6819;50.886;4.332;2023-11-18T14:35:18;5.28;;;1.50;;
13493;SDS011;6819;50.886;4.332;2023-11-18T14:37:45;1.63;;;1.10;;
13493;SDS011;6819;50.886;4.332;2023-11-18T14:40:15;1.20;;;1.10;;
13493;SDS011;6819;50.886;4.332;2023-11-18T14:42:41;3.15;;;1.20;;
13493;SDS011;6819;50.886;4.332;2023-11-18T14:45:12;4.18;;;1.13;;
13493;SDS011;6819;50.886;4.332;2023-11-18T14:47:39;2.05;;;1.30;;
13493;SDS011;6819;50.886;4.332;2023-11-18T14:50:05;3.20;;;1.20;;
13493;SDS011;6819;50.886;4.332;2023-11-18T14:52:40;2.45;;;1.05;;
13493;SDS011;6819;50.886;4.332;2023-11-18T14:55:06;2.08;;;1.40;;
13493;SDS011;6819;50.886;4.332;2023-11-18T14:57:37;2.00;;;1.35;;
13493;SDS011;6819;50.886;4.332;2023-11-18T15:00:03;2.08;;;1.48;;
13493;SDS011;6819;50.886;4.332;2023-11-18T15:02:43;2.95;;;1.10;;
13493;SDS011;6819;50.886;4.332;2023-11-18T15:05:11;2.78;;;1.30;;
13493;SDS011;6819;50.886;4.332;2023-11-18T15:07:37;3.72;;;1.15;;
13493;SDS011;6819;50.886;4.332;2023-11-18T15:10:04;2.65;;;1.52;;
13493;SDS011;6819;50.886;4.332;2023-11-18T15:12:31;1.95;;;1.42;;
13493;SDS011;6819;50.886;4.332;2023-11-18T15:14:57;2.80;;;1.60;;
13493;SDS011;6819;50.886;4.332;2023-11-18T15:17:25;2.92;;;1.20;;
13493;SDS011;6819;50.886;4.332;2023-11-18T15:19:51;1.83;;;1.52;;
13493;SDS011;6819;50.886;4.332;2023-11-18T15:22:18;1.58;;;1.10;;
13493;SDS011;6819;50.886;4.332;2023-11-18T15:24:45;2.17;;;1.50;;